createdAt,value
2018-12-20T00:00:39.540Z,44.43
2018-12-20T00:03:08.428Z,42.40
2018-12-20T00:05:37.447Z,42.33
2018-12-20T00:08:06.451Z,43.40
2018-12-20T00:10:35.472Z,44.67
2018-12-20T00:13:04.308Z,44.13
2018-12-20T00:15:33.078Z,39.63
2018-12-20T00:18:01.847Z,45.00
2018-12-20T00:20:30.681Z,42.17
2018-12-20T00:22:59.468Z,42.27
2018-12-20T00:25:28.466Z,39.13
2018-12-20T00:27:57.286Z,41.50
2018-12-20T00:30:26.034Z,42.77
2018-12-20T00:32:54.897Z,39.20
2018-12-20T00:35:23.788Z,40.97
2018-12-20T00:37:52.553Z,39.10
2018-12-20T00:40:21.447Z,43.13
2018-12-20T00:42:50.342Z,62.70
2018-12-20T00:45:19.312Z,55.97
2018-12-20T00:47:48.389Z,56.20
2018-12-20T00:50:17.132Z,57.57
2018-12-20T00:52:46.177Z,41.73
2018-12-20T00:55:14.931Z,40.43
2018-12-20T00:57:43.638Z,40.80
2018-12-20T01:00:12.686Z,40.47
2018-12-20T01:02:41.406Z,40.47
2018-12-20T01:05:10.430Z,37.23
2018-12-20T01:07:39.443Z,40.13
2018-12-20T01:10:08.412Z,37.73
2018-12-20T01:12:37.605Z,38.83
2018-12-20T01:15:07.146Z,38.13
2018-12-20T01:17:38.844Z,39.93
2018-12-20T01:20:09.557Z,39.07
2018-12-20T01:22:38.437Z,38.70
2018-12-20T01:25:07.472Z,35.20
2018-12-20T01:27:36.313Z,37.63
2018-12-20T01:30:06.589Z,36.27
2018-12-20T01:32:35.473Z,37.80
2018-12-20T01:35:04.594Z,42.20
2018-12-20T01:37:33.337Z,40.70
2018-12-20T01:40:08.639Z,38.03
2018-12-20T01:42:37.452Z,42.53
2018-12-20T01:45:06.470Z,37.97
2018-12-20T01:47:35.298Z,40.80
2018-12-20T01:50:04.734Z,38.27
2018-12-20T01:52:33.600Z,35.17
2018-12-20T01:55:02.581Z,39.17
2018-12-20T01:57:31.442Z,38.57
2018-12-20T02:00:00.272Z,39.10
2018-12-20T02:02:29.326Z,40.57
2018-12-20T02:04:58.452Z,41.03
2018-12-20T02:07:27.408Z,38.37
2018-12-20T02:09:56.342Z,42.33
2018-12-20T02:12:25.207Z,39.67
2018-12-20T02:15:01.435Z,42.40
2018-12-20T02:17:24.915Z,39.43
2018-12-20T02:19:53.649Z,44.20
2018-12-20T02:22:22.460Z,48.97
2018-12-20T02:24:51.170Z,38.97
2018-12-20T02:27:20.006Z,41.60
2018-12-20T02:29:55.264Z,41.93
2018-12-20T02:32:24.201Z,38.33
2018-12-20T02:34:52.917Z,38.30
2018-12-20T02:37:21.959Z,40.93
2018-12-20T02:39:50.808Z,48.50
2018-12-20T02:42:19.531Z,51.77
2018-12-20T02:44:48.273Z,52.67
2018-12-20T02:47:17.194Z,49.70
2018-12-20T02:49:46.285Z,49.77
2018-12-20T02:52:15.185Z,47.30
2018-12-20T02:54:43.986Z,50.53
2018-12-20T02:57:12.796Z,43.63
2018-12-20T02:59:41.638Z,45.20
2018-12-20T03:02:10.455Z,43.67
2018-12-20T03:04:39.279Z,43.17
2018-12-20T03:07:08.120Z,40.77
2018-12-20T03:09:36.803Z,39.83
2018-12-20T03:12:05.473Z,43.00
2018-12-20T03:14:34.412Z,41.77
2018-12-20T03:17:03.218Z,40.80
2018-12-20T03:19:32.300Z,38.83
2018-12-20T03:22:01.052Z,41.97
2018-12-20T03:24:29.905Z,42.13
2018-12-20T03:26:58.813Z,50.43
2018-12-20T03:29:27.698Z,48.47
2018-12-20T03:32:02.757Z,44.40
2018-12-20T03:34:31.491Z,48.40
2018-12-20T03:37:00.248Z,48.13
2018-12-20T03:39:28.994Z,54.23
2018-12-20T03:41:57.680Z,58.63
2018-12-20T03:44:26.434Z,79.23
2018-12-20T03:46:55.205Z,79.27
2018-12-20T03:49:24.085Z,65.93
2018-12-20T03:51:52.896Z,47.00
2018-12-20T03:54:21.689Z,102.90
2018-12-20T03:56:50.436Z,48.30
2018-12-20T03:59:19.327Z,39.53
2018-12-20T04:01:48.265Z,51.60
2018-12-20T04:04:17.138Z,44.93
2018-12-20T04:06:46.134Z,49.93
2018-12-20T04:09:15.215Z,51.13
2018-12-20T04:11:44.294Z,46.60
2018-12-20T04:14:13.131Z,42.37
2018-12-20T04:16:42.191Z,41.17
2018-12-20T04:19:11.053Z,44.20
2018-12-20T04:21:39.806Z,45.90
2018-12-20T04:24:08.804Z,43.83
2018-12-20T04:26:37.648Z,44.03
2018-12-20T04:29:06.448Z,47.67
2018-12-20T04:31:35.160Z,53.27
2018-12-20T04:34:03.953Z,69.70
2018-12-20T04:36:32.903Z,63.07
2018-12-20T04:39:01.763Z,68.07
2018-12-20T04:41:30.731Z,388.00
2018-12-20T04:43:59.775Z,414.03
2018-12-20T04:46:28.812Z,310.57
2018-12-20T04:48:57.806Z,109.20
2018-12-20T04:51:26.633Z,61.47
2018-12-20T04:53:55.619Z,45.17
2018-12-20T04:56:24.610Z,42.03
2018-12-20T04:58:53.644Z,40.23
2018-12-20T05:01:22.524Z,40.83
2018-12-20T05:03:51.341Z,48.63
2018-12-20T05:06:20.070Z,38.30
2018-12-20T05:08:48.937Z,37.10
2018-12-20T05:11:17.714Z,40.63
2018-12-20T05:13:46.458Z,37.10
2018-12-20T05:16:18.065Z,41.00
2018-12-20T05:18:46.929Z,45.07
2018-12-20T05:21:15.871Z,84.60
2018-12-20T05:23:44.832Z,152.97
2018-12-20T05:26:13.710Z,173.27
2018-12-20T05:28:42.404Z,228.23
2018-12-20T05:31:11.262Z,56.80
2018-12-20T05:33:40.187Z,53.30
2018-12-20T05:36:09.112Z,54.33
2018-12-20T05:38:37.937Z,46.17
2018-12-20T05:41:06.726Z,126.23
2018-12-20T05:43:35.790Z,236.30
2018-12-20T05:46:04.785Z,70.60
2018-12-20T05:48:33.579Z,53.73
2018-12-20T05:51:02.290Z,57.67
2018-12-20T05:53:31.281Z,251.73
2018-12-20T05:56:00.223Z,189.33
2018-12-20T05:58:29.045Z,105.20
2018-12-20T06:00:57.940Z,74.90
2018-12-20T06:03:26.906Z,64.00
2018-12-20T06:05:55.856Z,83.20
2018-12-20T06:08:24.882Z,152.83
2018-12-20T06:10:53.563Z,69.87
2018-12-20T06:13:22.450Z,53.07
2018-12-20T06:15:51.273Z,44.97
2018-12-20T06:18:20.060Z,49.77
2018-12-20T06:20:48.882Z,54.40
2018-12-20T06:23:17.941Z,77.23
2018-12-20T06:25:46.907Z,47.40
2018-12-20T06:28:15.655Z,51.93
2018-12-20T06:30:44.460Z,49.80
2018-12-20T06:33:13.218Z,98.53
2018-12-20T06:35:41.967Z,53.67
2018-12-20T06:38:10.666Z,66.33
2018-12-20T06:40:39.395Z,63.80
2018-12-20T06:43:08.127Z,64.27
2018-12-20T06:45:36.965Z,56.13
2018-12-20T06:48:05.750Z,64.83
2018-12-20T06:50:34.458Z,58.73
2018-12-20T06:53:03.132Z,57.30
2018-12-20T06:55:31.911Z,53.57
2018-12-20T06:58:00.738Z,56.23
2018-12-20T07:00:29.431Z,60.10
2018-12-20T07:02:58.209Z,93.50
2018-12-20T07:05:26.920Z,93.87
2018-12-20T07:07:55.656Z,86.03
2018-12-20T07:10:24.414Z,100.80
2018-12-20T07:12:53.119Z,132.37
2018-12-20T07:15:21.919Z,138.33
2018-12-20T07:17:50.570Z,124.63
2018-12-20T07:20:19.423Z,79.47
2018-12-20T07:22:48.508Z,84.43
2018-12-20T07:25:17.197Z,73.73
2018-12-20T07:27:45.902Z,71.87
2018-12-20T07:30:14.730Z,74.47
2018-12-20T07:32:43.536Z,93.50
2018-12-20T07:35:12.296Z,74.20
2018-12-20T07:37:41.145Z,90.00
2018-12-20T07:40:10.772Z,94.80
2018-12-20T07:42:39.587Z,127.63
2018-12-20T07:45:09.193Z,161.23
2018-12-20T07:47:37.860Z,101.97
2018-12-20T07:50:08.486Z,96.03
2018-12-20T07:52:37.230Z,111.77
2018-12-20T07:55:06.474Z,161.03
2018-12-20T07:57:35.298Z,104.37
2018-12-20T08:00:04.893Z,77.53
2018-12-20T08:02:33.777Z,82.00
2018-12-20T08:05:02.519Z,78.17
2018-12-20T08:07:31.213Z,56.00
2018-12-20T08:09:59.900Z,60.20
2018-12-20T08:12:28.726Z,59.43
2018-12-20T08:14:57.527Z,56.60
2018-12-20T08:17:26.166Z,60.20
2018-12-20T08:19:54.875Z,56.23
2018-12-20T08:22:23.567Z,55.50
2018-12-20T08:24:52.360Z,70.00
2018-12-20T08:27:21.084Z,73.47
2018-12-20T08:29:50.873Z,79.83
2018-12-20T08:32:22.691Z,63.83
2018-12-20T08:34:51.388Z,67.90
2018-12-20T08:37:20.122Z,67.87
2018-12-20T08:39:48.821Z,74.73
2018-12-20T08:42:17.665Z,80.80
2018-12-20T08:44:46.544Z,78.97
2018-12-20T08:47:15.282Z,90.80
2018-12-20T08:49:43.962Z,88.23
2018-12-20T08:52:12.723Z,84.53
2018-12-20T08:54:41.463Z,88.93
2018-12-20T08:57:10.156Z,91.90
2018-12-20T08:59:38.938Z,96.53
2018-12-20T09:02:07.717Z,93.33
2018-12-20T09:04:36.493Z,89.93
2018-12-20T09:07:05.220Z,91.23
2018-12-20T09:09:34.214Z,103.80
2018-12-20T09:12:02.898Z,100.80
2018-12-20T09:14:31.546Z,95.83
2018-12-20T09:17:03.169Z,101.80
2018-12-20T09:19:31.102Z,97.60
2018-12-20T09:24:35.073Z,101.70
2018-12-20T09:27:03.894Z,114.03
2018-12-20T09:29:32.704Z,111.20
2018-12-20T09:32:01.635Z,104.93
2018-12-20T09:34:30.346Z,112.10
2018-12-20T09:36:59.146Z,96.47
2018-12-20T09:39:27.897Z,101.50
2018-12-20T09:41:56.623Z,100.63
2018-12-20T09:44:25.476Z,105.03
2018-12-20T09:46:58.258Z,101.63
2018-12-20T09:49:26.966Z,108.13
2018-12-20T09:51:55.685Z,119.07
2018-12-20T09:54:24.474Z,116.87
2018-12-20T09:56:53.258Z,114.70
2018-12-20T09:59:22.064Z,102.90
2018-12-20T10:01:50.833Z,113.57
2018-12-20T10:04:19.552Z,101.80
2018-12-20T10:06:48.340Z,101.53
2018-12-20T10:09:17.106Z,109.70
2018-12-20T10:11:45.849Z,96.13
2018-12-20T10:14:14.609Z,110.50
2018-12-20T10:16:43.475Z,128.73
2018-12-20T10:19:12.808Z,114.53
2018-12-20T10:21:41.587Z,129.53
2018-12-20T10:24:10.333Z,88.90
2018-12-20T10:26:39.032Z,85.57
2018-12-20T10:29:07.780Z,87.07
2018-12-20T10:31:36.434Z,92.03
2018-12-20T10:34:19.901Z,87.57
2018-12-20T10:36:48.709Z,71.60
2018-12-20T10:39:17.567Z,69.77
2018-12-20T10:41:46.266Z,89.73
2018-12-20T10:44:15.023Z,66.40
2018-12-20T10:46:44.164Z,67.07
2018-12-20T10:49:13.192Z,73.00
2018-12-20T10:51:41.849Z,95.20
2018-12-20T10:54:10.672Z,88.07
2018-12-20T10:56:39.425Z,74.87
2018-12-20T10:59:08.154Z,79.33
2018-12-20T11:01:42.165Z,91.33
2018-12-20T11:04:16.036Z,85.13
2018-12-20T11:06:49.949Z,76.00
2018-12-20T11:09:24.958Z,71.57
2018-12-20T11:11:59.066Z,79.53
2018-12-20T11:14:27.764Z,94.03
2018-12-20T11:16:56.548Z,77.20
2018-12-20T11:19:25.331Z,67.30
2018-12-20T11:21:54.090Z,85.30
2018-12-20T11:24:22.854Z,151.90
2018-12-20T11:26:51.702Z,64.17
2018-12-20T11:29:20.364Z,65.20
2018-12-20T11:31:49.182Z,66.73
2018-12-20T11:34:17.938Z,63.53
2018-12-20T11:36:46.675Z,65.73
2018-12-20T11:39:15.528Z,66.20
2018-12-20T11:41:44.198Z,64.77
2018-12-20T11:44:13.069Z,72.33
2018-12-20T11:46:41.731Z,66.77
2018-12-20T11:49:10.487Z,75.20
2018-12-20T11:51:39.263Z,75.03
2018-12-20T11:54:08.043Z,79.97
2018-12-20T11:56:36.830Z,82.30
2018-12-20T11:59:05.735Z,73.77
2018-12-20T12:01:34.491Z,82.87
2018-12-20T12:04:03.305Z,83.70
2018-12-20T12:06:32.094Z,76.57
2018-12-20T12:09:00.821Z,74.57
2018-12-20T12:11:29.658Z,84.37
2018-12-20T12:13:58.362Z,106.73
2018-12-20T12:16:27.183Z,76.47
2018-12-20T12:18:55.922Z,78.50
2018-12-20T12:21:24.698Z,75.13
2018-12-20T12:23:53.359Z,72.27
2018-12-20T12:26:22.183Z,75.90
2018-12-20T12:28:50.921Z,83.23
2018-12-20T12:31:19.710Z,87.17
2018-12-20T12:33:48.544Z,87.50
2018-12-20T12:36:18.227Z,81.37
2018-12-20T12:38:46.993Z,96.50
2018-12-20T12:41:15.720Z,89.67
2018-12-20T12:43:44.513Z,76.33
2018-12-20T12:46:13.215Z,68.60
2018-12-20T12:48:41.930Z,76.90
2018-12-20T12:51:10.717Z,77.40
2018-12-20T12:53:39.459Z,75.50
2018-12-20T12:56:08.352Z,81.07
2018-12-20T12:58:37.136Z,75.17
2018-12-20T13:01:05.821Z,75.70
2018-12-20T13:03:34.612Z,76.90
2018-12-20T13:06:03.441Z,77.27
2018-12-20T13:08:32.200Z,89.87
2018-12-20T13:11:00.973Z,89.07
2018-12-20T13:13:29.769Z,79.77
2018-12-20T13:15:58.566Z,77.00
2018-12-20T13:18:27.538Z,74.53
2018-12-20T13:20:56.428Z,81.73
2018-12-20T13:23:25.719Z,81.37
2018-12-20T13:25:54.634Z,87.33
2018-12-20T13:28:23.309Z,87.07
2018-12-20T13:30:52.122Z,89.80
2018-12-20T13:33:20.802Z,84.47
2018-12-20T13:35:49.637Z,77.27
2018-12-20T13:38:18.276Z,92.60
2018-12-20T13:40:47.075Z,91.37
2018-12-20T13:43:15.893Z,82.13
2018-12-20T13:45:44.730Z,79.33
2018-12-20T13:48:22.029Z,79.63
2018-12-20T13:50:45.167Z,80.07
2018-12-20T13:53:13.861Z,107.93
2018-12-20T13:55:42.702Z,84.83
2018-12-20T13:58:11.436Z,78.97
2018-12-20T14:00:40.135Z,81.70
2018-12-20T14:03:08.894Z,85.07
2018-12-20T14:05:37.655Z,83.83
2018-12-20T14:08:06.435Z,78.87
2018-12-20T14:10:36.018Z,81.40
2018-12-20T14:13:04.731Z,78.10
2018-12-20T14:15:33.500Z,73.00
2018-12-20T14:18:02.161Z,80.47
2018-12-20T14:20:30.927Z,79.17
2018-12-20T14:22:59.677Z,74.63
2018-12-20T14:25:28.346Z,76.67
2018-12-20T14:27:58.097Z,79.40
2018-12-20T14:30:26.808Z,85.67
2018-12-20T14:32:55.484Z,83.17
2018-12-20T14:35:24.248Z,81.07
2018-12-20T14:37:53.040Z,84.30
2018-12-20T14:40:22.025Z,79.67
2018-12-20T14:42:50.725Z,70.27
2018-12-20T14:45:19.410Z,77.10
2018-12-20T14:47:48.141Z,78.67
2018-12-20T14:50:16.916Z,80.87
2018-12-20T14:52:45.601Z,94.70
2018-12-20T14:55:14.361Z,92.13
2018-12-20T14:57:43.075Z,89.07
2018-12-20T15:00:12.787Z,86.23
2018-12-20T15:02:41.570Z,79.77
2018-12-20T15:05:10.419Z,78.67
2018-12-20T15:07:39.190Z,78.73
2018-12-20T15:10:09.852Z,100.67
2018-12-20T15:12:38.677Z,85.93
2018-12-20T15:15:09.246Z,83.47
2018-12-20T15:17:38.101Z,88.20
2018-12-20T15:20:08.429Z,90.93
2018-12-20T15:22:43.812Z,87.20
2018-12-20T15:25:12.596Z,79.60
2018-12-20T15:27:41.314Z,90.60
2018-12-20T15:30:11.319Z,111.07
2018-12-20T15:32:40.187Z,97.80
2018-12-20T15:35:08.954Z,107.27
2018-12-20T15:37:37.680Z,94.13
2018-12-20T15:40:08.265Z,91.37
2018-12-20T15:42:37.184Z,82.10
2018-12-20T15:45:07.110Z,84.93
2018-12-20T15:47:35.856Z,83.40
2018-12-20T15:50:04.857Z,85.83
2018-12-20T15:52:33.562Z,110.07
2018-12-20T15:55:02.392Z,101.63
2018-12-20T15:57:31.102Z,103.80
2018-12-20T15:59:59.799Z,101.33
2018-12-20T16:02:28.605Z,102.63
2018-12-20T16:04:57.404Z,114.20
2018-12-20T16:07:26.179Z,113.23
2018-12-20T16:09:55.003Z,112.40
2018-12-20T16:12:23.761Z,103.03
2018-12-20T16:14:52.643Z,97.97
2018-12-20T16:17:21.415Z,100.60
2018-12-20T16:19:50.257Z,117.03
2018-12-20T16:22:19.107Z,114.93
2018-12-20T16:24:47.801Z,110.63
2018-12-20T16:27:16.544Z,109.93
2018-12-20T16:29:45.352Z,117.57
2018-12-20T16:32:14.154Z,127.93
2018-12-20T16:34:42.960Z,114.47
2018-12-20T16:37:12.872Z,106.13
2018-12-20T16:39:42.551Z,97.37
2018-12-20T16:42:12.691Z,129.90
2018-12-20T16:44:41.675Z,138.73
2018-12-20T16:47:10.463Z,107.37
2018-12-20T16:49:39.301Z,113.13
2018-12-20T16:52:08.016Z,121.60
2018-12-20T16:54:36.843Z,105.87
2018-12-20T16:57:05.658Z,101.47
2018-12-20T16:59:34.403Z,96.10
2018-12-20T17:02:03.168Z,99.83
2018-12-20T17:04:31.827Z,103.40
2018-12-20T17:07:00.558Z,99.77
2018-12-20T17:09:29.305Z,96.17
2018-12-20T17:11:58.134Z,93.10
2018-12-20T17:14:26.993Z,105.73
2018-12-20T17:16:55.686Z,93.93
2018-12-20T17:19:24.605Z,82.17
2018-12-20T17:21:53.397Z,97.53
2018-12-20T17:24:22.171Z,139.90
2018-12-20T17:26:51.883Z,105.83
2018-12-20T17:29:20.614Z,96.60
2018-12-20T17:31:50.377Z,80.40
2018-12-20T17:34:19.202Z,85.63
2018-12-20T17:36:48.001Z,86.40
2018-12-20T17:39:16.857Z,84.50
2018-12-20T17:41:45.589Z,91.20
2018-12-20T17:44:14.317Z,96.13
2018-12-20T17:46:43.706Z,88.63
2018-12-20T17:49:12.437Z,99.30
2018-12-20T17:51:41.294Z,110.87
2018-12-20T17:54:10.811Z,99.47
2018-12-20T17:56:39.689Z,86.53
2018-12-20T17:59:09.213Z,86.93
2018-12-20T18:01:40.165Z,94.90
2018-12-20T18:04:09.454Z,152.73
2018-12-20T18:06:38.524Z,214.47
2018-12-20T18:09:09.111Z,171.23
2018-12-20T18:11:37.948Z,127.00
2018-12-20T18:14:06.606Z,163.80
2018-12-20T18:16:35.382Z,120.03
2018-12-20T18:19:04.323Z,112.43
2018-12-20T18:21:32.997Z,106.30
2018-12-20T18:24:02.028Z,110.20
2018-12-20T18:26:30.668Z,102.23
2018-12-20T18:28:59.777Z,94.77
2018-12-20T18:31:28.556Z,111.50
2018-12-20T18:33:57.334Z,94.87
2018-12-20T18:36:26.249Z,111.60
2018-12-20T18:38:54.958Z,103.07
2018-12-20T18:41:23.747Z,99.63
2018-12-20T18:43:52.485Z,92.80
2018-12-20T18:46:21.257Z,101.70
2018-12-20T18:48:49.983Z,97.30
2018-12-20T18:51:19.675Z,107.20
2018-12-20T18:53:48.453Z,103.57
2018-12-20T18:56:17.201Z,108.37
2018-12-20T18:58:46.035Z,100.60
2018-12-20T19:01:15.000Z,100.70
2018-12-20T19:03:43.849Z,92.77
2018-12-20T19:06:12.746Z,101.33
2018-12-20T19:08:41.488Z,96.03
2018-12-20T19:11:10.322Z,105.70
2018-12-20T19:13:39.078Z,160.03
2018-12-20T19:16:07.897Z,122.50
2018-12-20T19:18:36.646Z,117.10
2018-12-20T19:21:05.638Z,118.57
2018-12-20T19:23:35.900Z,123.73
2018-12-20T19:26:05.248Z,123.50
2018-12-20T19:28:34.031Z,126.83
2018-12-20T19:31:02.700Z,107.73
2018-12-20T19:33:31.550Z,107.87
2018-12-20T19:36:00.216Z,109.50
2018-12-20T19:38:29.028Z,111.27
2018-12-20T19:40:57.934Z,109.67
2018-12-20T19:43:26.713Z,116.50
2018-12-20T19:46:09.918Z,111.83
2018-12-20T19:48:38.570Z,107.07
2018-12-20T19:51:07.296Z,103.10
2018-12-20T19:53:36.028Z,109.20
2018-12-20T19:56:04.739Z,110.77
2018-12-20T19:58:33.619Z,106.90
2018-12-20T20:01:02.407Z,108.90
2018-12-20T20:03:31.142Z,117.83
2018-12-20T20:05:59.907Z,107.43
2018-12-20T20:08:28.645Z,113.77
2018-12-20T20:10:57.417Z,110.43
2018-12-20T20:13:30.714Z,110.10
2018-12-20T20:15:56.878Z,109.57
2018-12-20T20:18:25.624Z,115.07
2018-12-20T20:20:54.549Z,99.63
2018-12-20T20:23:23.207Z,100.77
2018-12-20T20:25:51.968Z,89.10
2018-12-20T20:28:20.682Z,95.20
2018-12-20T20:30:49.499Z,99.13
2018-12-20T20:33:18.208Z,107.63
2018-12-20T20:35:46.903Z,99.23
2018-12-20T20:38:15.552Z,94.53
2018-12-20T20:40:44.440Z,123.73
2018-12-20T20:43:13.141Z,107.90
2018-12-20T20:45:41.796Z,107.53
2018-12-20T20:48:10.701Z,120.00
2018-12-20T20:50:39.490Z,112.87
2018-12-20T20:53:08.519Z,125.20
2018-12-20T20:55:37.340Z,129.07
2018-12-20T20:58:06.054Z,112.70
2018-12-20T21:00:34.840Z,122.30
2018-12-20T21:03:03.581Z,111.83
2018-12-20T21:05:33.235Z,99.57
2018-12-20T21:08:01.923Z,109.10
2018-12-20T21:10:30.658Z,133.17
2018-12-20T21:12:59.367Z,144.30
2018-12-20T21:15:28.124Z,127.90
2018-12-20T21:17:56.842Z,129.07
2018-12-20T21:20:30.673Z,129.90
2018-12-20T21:22:56.362Z,137.03
2018-12-20T21:25:25.230Z,145.07
2018-12-20T21:27:53.871Z,152.63
2018-12-20T21:30:22.696Z,149.73
2018-12-20T21:32:51.440Z,144.63
2018-12-20T21:35:20.776Z,158.40
2018-12-20T21:37:49.489Z,133.53
2018-12-20T21:40:18.773Z,120.30
2018-12-20T21:42:47.810Z,125.10
2018-12-20T21:45:16.574Z,128.93
2018-12-20T21:47:45.330Z,129.97
2018-12-20T21:50:14.031Z,139.63
2018-12-20T21:52:42.784Z,131.03
2018-12-20T21:55:11.739Z,124.97
2018-12-20T21:57:40.552Z,127.63
2018-12-20T22:00:11.040Z,133.50
2018-12-20T22:02:39.958Z,112.87
2018-12-20T22:05:08.981Z,149.97
2018-12-20T22:07:38.472Z,122.60
2018-12-20T22:10:08.262Z,141.47
2018-12-20T22:12:37.095Z,126.13
2018-12-20T22:15:06.140Z,114.87
2018-12-20T22:17:34.878Z,113.77
2018-12-20T22:20:03.757Z,110.07
2018-12-20T22:22:32.567Z,120.67
2018-12-20T22:25:01.278Z,107.23
2018-12-20T22:27:29.954Z,113.97
2018-12-20T22:29:58.725Z,115.47
2018-12-20T22:32:27.554Z,118.53
2018-12-20T22:34:56.254Z,119.17
2018-12-20T22:37:25.007Z,116.77
2018-12-20T22:39:53.714Z,109.67
2018-12-20T22:42:22.560Z,112.27
2018-12-20T22:44:51.250Z,114.13
2018-12-20T22:47:19.954Z,108.40
2018-12-20T22:49:48.695Z,112.37
2018-12-20T22:52:17.460Z,115.60
2018-12-20T22:54:46.232Z,113.73
2018-12-20T22:57:15.043Z,117.93
2018-12-20T22:59:43.790Z,121.70
2018-12-20T23:02:18.033Z,120.47
2018-12-20T23:04:43.394Z,123.87
2018-12-20T23:07:12.221Z,129.80
2018-12-20T23:09:40.970Z,128.30
2018-12-20T23:12:09.703Z,118.47
2018-12-20T23:14:38.341Z,132.57
2018-12-20T23:17:07.135Z,125.60
2018-12-20T23:19:35.858Z,127.17
2018-12-20T23:22:04.839Z,122.13
2018-12-20T23:24:33.667Z,108.53
2018-12-20T23:27:02.417Z,114.13
2018-12-20T23:29:31.178Z,118.83
2018-12-20T23:31:59.896Z,125.87
2018-12-20T23:34:28.527Z,113.67
2018-12-20T23:36:57.301Z,107.27
2018-12-20T23:39:26.116Z,116.67
2018-12-20T23:41:54.853Z,102.20
2018-12-20T23:44:23.618Z,115.47
2018-12-20T23:46:52.432Z,121.20
2018-12-20T23:49:21.300Z,123.63
2018-12-20T23:51:50.083Z,113.53
2018-12-20T23:54:18.847Z,113.37
2018-12-20T23:56:47.653Z,116.53
2018-12-20T23:59:16.353Z,116.60
